createdAt,value
2022-12-06T00:01:38.860Z,48.75
2022-12-06T00:03:26.393Z,46.83
2022-12-06T00:05:13.561Z,46.63
2022-12-06T00:07:00.750Z,45.45
2022-12-06T00:08:48.920Z,45.88
2022-12-06T00:12:23.872Z,44.55
2022-12-06T00:14:12.272Z,49.15
2022-12-06T00:16:04.368Z,47.28
2022-12-06T00:17:51.580Z,51.17
2022-12-06T00:19:38.847Z,49.38
2022-12-06T00:21:34.880Z,49.07
2022-12-06T00:23:22.097Z,45.75
2022-12-06T00:25:09.563Z,47.05
2022-12-06T00:26:56.663Z,51.05
2022-12-06T00:28:44.388Z,48.10
2022-12-06T00:30:31.763Z,47.22
2022-12-06T00:32:19.815Z,46.20
2022-12-06T00:34:07.243Z,46.22
2022-12-06T00:36:01.695Z,49.15
2022-12-06T00:37:48.852Z,51.33
2022-12-06T00:39:36.107Z,54.47
2022-12-06T00:41:25.063Z,53.58
2022-12-06T00:43:12.300Z,52.35
2022-12-06T00:44:59.460Z,52.17
2022-12-06T00:46:46.972Z,48.92
2022-12-06T00:48:35.140Z,47.72
2022-12-06T00:50:22.350Z,44.88
2022-12-06T00:52:09.816Z,45.03
2022-12-06T00:53:57.265Z,45.15
2022-12-06T00:55:45.178Z,47.50
2022-12-06T00:57:32.651Z,46.65
2022-12-06T00:59:19.708Z,48.90
2022-12-06T01:01:12.772Z,48.05
2022-12-06T01:03:00.207Z,47.50
2022-12-06T01:04:47.744Z,48.97
2022-12-06T01:06:36.327Z,49.53
2022-12-06T01:08:23.733Z,46.28
2022-12-06T01:10:11.249Z,48.60
2022-12-06T01:11:59.041Z,47.85
2022-12-06T01:13:46.490Z,48.42
2022-12-06T01:15:37.087Z,49.22
2022-12-06T01:17:24.197Z,51.97
2022-12-06T01:19:12.767Z,56.45
2022-12-06T01:21:10.794Z,54.13
2022-12-06T01:22:57.994Z,52.83
2022-12-06T01:24:47.269Z,51.67
2022-12-06T01:26:36.071Z,49.70
2022-12-06T01:28:23.295Z,47.45
2022-12-06T01:30:10.923Z,47.03
2022-12-06T01:31:57.908Z,49.17
2022-12-06T01:33:45.330Z,45.85
2022-12-06T01:35:32.632Z,44.65
2022-12-06T01:37:19.989Z,48.22
2022-12-06T01:39:10.569Z,46.03
2022-12-06T01:40:58.437Z,48.67
2022-12-06T01:42:45.375Z,48.88
2022-12-06T01:44:50.832Z,51.80
2022-12-06T01:46:42.402Z,54.80
2022-12-06T01:48:29.711Z,55.30
2022-12-06T01:50:24.584Z,51.45
2022-12-06T01:52:13.276Z,55.60
2022-12-06T01:54:03.101Z,58.40
2022-12-06T01:55:50.259Z,56.33
2022-12-06T01:57:37.582Z,55.08
2022-12-06T01:59:29.185Z,58.15
2022-12-06T02:03:07.196Z,55.33
2022-12-06T02:04:54.716Z,69.85
2022-12-06T02:06:42.245Z,72.15
2022-12-06T02:08:30.272Z,64.28
2022-12-06T02:10:18.307Z,58.20
2022-12-06T02:13:59.077Z,62.58
2022-12-06T02:16:34.668Z,59.15
2022-12-06T02:18:30.739Z,49.45
2022-12-06T02:20:31.111Z,49.92
2022-12-06T02:22:24.094Z,50.55
2022-12-06T02:24:36.491Z,53.08
2022-12-06T02:26:39.352Z,48.85
2022-12-06T02:29:03.969Z,47.50
2022-12-06T02:31:07.955Z,47.47
2022-12-06T02:33:07.134Z,50.85
2022-12-06T02:35:00.400Z,51.85
2022-12-06T02:36:52.982Z,51.95
2022-12-06T02:38:49.830Z,50.13
2022-12-06T02:40:41.070Z,48.92
2022-12-06T02:42:55.951Z,48.08
2022-12-06T02:44:53.097Z,46.10
2022-12-06T02:46:41.560Z,46.30
2022-12-06T02:48:28.828Z,46.42
2022-12-06T02:50:20.801Z,46.88
2022-12-06T02:52:07.839Z,46.28
2022-12-06T02:53:57.361Z,45.70
2022-12-06T02:55:45.950Z,46.08
2022-12-06T02:57:43.141Z,45.25
2022-12-06T02:59:30.193Z,45.47
2022-12-06T03:01:52.356Z,45.05
2022-12-06T03:03:56.491Z,43.40
2022-12-06T03:06:01.721Z,47.45
2022-12-06T03:07:50.934Z,46.60
2022-12-06T03:10:14.898Z,47.17
2022-12-06T03:12:30.173Z,47.67
2022-12-06T03:14:24.663Z,47.92
2022-12-06T03:16:23.403Z,48.10
2022-12-06T03:18:22.896Z,48.70
2022-12-06T03:20:21.351Z,46.80
2022-12-06T03:22:39.382Z,48.55
2022-12-06T03:24:29.931Z,47.60
2022-12-06T03:26:21.964Z,49.30
2022-12-06T03:28:11.756Z,48.67
2022-12-06T03:30:02.202Z,50.92
2022-12-06T03:31:52.070Z,51.40
2022-12-06T03:33:49.244Z,51.92
2022-12-06T03:35:37.807Z,50.25
2022-12-06T03:37:28.201Z,49.10
2022-12-06T03:39:21.951Z,51.80
2022-12-06T03:41:10.806Z,51.75
2022-12-06T03:42:58.753Z,50.63
2022-12-06T03:44:47.377Z,51.20
2022-12-06T03:46:44.379Z,51.03
2022-12-06T03:48:39.018Z,52.35
2022-12-06T03:50:55.414Z,53.97
2022-12-06T03:52:45.471Z,55.05
2022-12-06T03:54:32.660Z,51.97
2022-12-06T03:56:21.470Z,51.95
2022-12-06T03:58:08.457Z,52.92
2022-12-06T03:59:56.011Z,52.00
2022-12-06T04:01:43.136Z,50.63
2022-12-06T04:03:30.415Z,52.57
2022-12-06T04:05:17.896Z,50.80
2022-12-06T04:07:05.040Z,51.92
2022-12-06T04:08:52.110Z,50.15
2022-12-06T04:10:39.347Z,51.45
2022-12-06T04:12:45.152Z,52.40
2022-12-06T04:14:39.449Z,51.83
2022-12-06T04:16:45.721Z,51.10
2022-12-06T04:18:32.695Z,53.22
2022-12-06T04:20:19.740Z,52.72
2022-12-06T04:22:25.751Z,52.03
2022-12-06T04:24:12.781Z,54.30
2022-12-06T04:26:00.319Z,53.40
2022-12-06T04:28:06.054Z,51.85
2022-12-06T04:30:11.670Z,53.28
2022-12-06T04:32:17.123Z,52.95
2022-12-06T04:34:22.952Z,53.08
2022-12-06T04:36:28.777Z,53.42
2022-12-06T04:38:34.253Z,53.47
2022-12-06T04:40:21.471Z,53.92
2022-12-06T04:42:27.643Z,55.13
2022-12-06T04:44:14.685Z,53.47
2022-12-06T04:46:02.018Z,54.13
2022-12-06T04:47:49.046Z,55.60
2022-12-06T04:49:37.164Z,56.13
2022-12-06T04:51:24.899Z,56.13
2022-12-06T04:53:12.930Z,58.03
2022-12-06T04:55:00.255Z,58.15
2022-12-06T04:56:47.961Z,56.58
2022-12-06T04:58:35.169Z,62.63
2022-12-06T05:00:22.309Z,60.28
2022-12-06T05:02:13.266Z,64.80
2022-12-06T05:04:00.627Z,63.85
2022-12-06T05:05:47.683Z,62.17
2022-12-06T05:07:35.747Z,67.18
2022-12-06T05:11:10.443Z,61.47
2022-12-06T05:12:57.758Z,61.63
2022-12-06T05:14:44.740Z,44.73
2022-12-06T05:16:31.932Z,59.78
2022-12-06T05:18:19.608Z,64.75
2022-12-06T05:20:07.382Z,65.43
2022-12-06T05:21:54.486Z,60.92
2022-12-06T05:23:42.426Z,59.42
2022-12-06T05:25:29.760Z,57.20
2022-12-06T05:27:16.781Z,56.53
2022-12-06T05:29:04.408Z,57.65
2022-12-06T05:30:51.730Z,55.10
2022-12-06T05:32:39.856Z,57.28
2022-12-06T05:34:27.190Z,55.90
2022-12-06T05:36:19.622Z,58.45
2022-12-06T05:38:06.678Z,63.38
2022-12-06T05:39:54.016Z,62.22
2022-12-06T05:41:41.087Z,62.92
2022-12-06T05:43:29.574Z,63.20
2022-12-06T05:45:16.888Z,67.43
2022-12-06T05:47:04.114Z,72.07
2022-12-06T05:48:51.200Z,70.03
2022-12-06T05:50:38.576Z,69.75
2022-12-06T05:52:25.667Z,69.43
2022-12-06T05:54:12.790Z,77.22
2022-12-06T05:56:11.761Z,85.07
2022-12-06T05:57:58.836Z,75.68
2022-12-06T05:59:45.817Z,67.10
2022-12-06T06:01:33.140Z,73.20
2022-12-06T06:03:20.203Z,79.25
2022-12-06T06:05:07.830Z,75.78
2022-12-06T06:08:42.067Z,80.57
2022-12-06T06:10:29.160Z,79.30
2022-12-06T06:12:16.515Z,79.93
2022-12-06T06:14:03.493Z,81.50
2022-12-06T06:15:50.886Z,86.70
2022-12-06T06:17:38.996Z,91.03
2022-12-06T06:21:13.917Z,109.28
2022-12-06T06:23:01.485Z,112.82
2022-12-06T06:24:49.039Z,137.80
2022-12-06T06:26:36.197Z,144.45
2022-12-06T06:28:24.100Z,128.05
2022-12-06T06:30:12.611Z,118.50
2022-12-06T06:31:59.786Z,180.00
2022-12-06T06:33:47.072Z,206.07
2022-12-06T06:35:34.349Z,149.70
2022-12-06T06:37:21.462Z,115.60
2022-12-06T06:39:08.733Z,110.00
2022-12-06T06:40:55.797Z,105.20
2022-12-06T06:42:42.771Z,113.43
2022-12-06T06:44:30.133Z,123.32
2022-12-06T06:46:19.412Z,133.57
2022-12-06T06:48:06.673Z,131.80
2022-12-06T06:49:53.898Z,142.68
2022-12-06T06:51:40.994Z,152.47
2022-12-06T06:53:28.495Z,135.82
2022-12-06T06:55:16.040Z,133.98
2022-12-06T06:57:03.169Z,154.13
2022-12-06T06:58:50.275Z,134.48
2022-12-06T07:00:37.607Z,148.45
2022-12-06T07:02:24.799Z,153.18
2022-12-06T07:04:11.887Z,105.60
2022-12-06T07:06:06.966Z,89.82
2022-12-06T07:07:54.656Z,87.25
2022-12-06T07:09:42.037Z,89.95
2022-12-06T07:11:29.502Z,88.63
2022-12-06T07:13:18.121Z,83.32
2022-12-06T07:15:06.217Z,81.38
2022-12-06T07:16:54.090Z,85.60
2022-12-06T07:18:42.110Z,84.90
2022-12-06T07:22:16.979Z,82.72
2022-12-06T07:24:04.212Z,85.80
2022-12-06T07:26:21.894Z,86.43
2022-12-06T07:28:09.251Z,90.10
2022-12-06T07:29:56.459Z,95.32
2022-12-06T07:31:43.544Z,91.00
2022-12-06T07:33:30.770Z,91.70
2022-12-06T07:35:17.867Z,68.57
2022-12-06T07:37:08.050Z,96.43
2022-12-06T07:38:57.369Z,99.07
2022-12-06T07:43:10.063Z,116.40
2022-12-06T07:45:04.628Z,125.25
2022-12-06T07:46:52.522Z,121.75
2022-12-06T07:48:39.822Z,128.85
2022-12-06T07:50:27.227Z,125.28
2022-12-06T07:52:14.289Z,124.63
2022-12-06T07:54:01.851Z,118.43
2022-12-06T07:57:42.950Z,112.50
2022-12-06T07:59:30.910Z,105.75
2022-12-06T08:01:19.036Z,101.82
2022-12-06T08:03:06.691Z,99.93
2022-12-06T08:04:54.954Z,103.47
2022-12-06T08:06:42.508Z,97.25
2022-12-06T08:08:31.672Z,97.55
2022-12-06T08:10:19.112Z,96.38
2022-12-06T08:12:07.582Z,95.53
2022-12-06T08:13:54.746Z,94.85
2022-12-06T08:15:41.996Z,90.93
2022-12-06T08:17:30.506Z,95.10
2022-12-06T08:19:17.939Z,91.70
2022-12-06T08:21:06.035Z,81.93
2022-12-06T08:22:53.354Z,74.57
2022-12-06T08:24:40.308Z,74.22
2022-12-06T08:26:27.483Z,68.37
2022-12-06T08:28:14.791Z,64.03
2022-12-06T08:30:02.445Z,64.18
2022-12-06T08:33:37.788Z,63.97
2022-12-06T08:35:24.989Z,64.70
2022-12-06T08:37:12.872Z,66.38
2022-12-06T08:39:01.079Z,69.25
2022-12-06T08:40:48.474Z,68.80
2022-12-06T08:42:35.727Z,70.13
2022-12-06T08:44:23.423Z,69.78
2022-12-06T08:46:10.470Z,69.82
2022-12-06T08:47:57.590Z,72.85
2022-12-06T08:49:45.250Z,70.72
2022-12-06T08:51:34.859Z,65.65
2022-12-06T08:53:22.006Z,67.43
2022-12-06T08:55:09.745Z,69.65
2022-12-06T08:56:56.958Z,69.00
2022-12-06T08:58:44.282Z,66.32
2022-12-06T09:00:31.609Z,70.97
2022-12-06T09:02:18.888Z,70.55
2022-12-06T09:04:08.564Z,73.10
2022-12-06T09:06:06.119Z,81.30
2022-12-06T09:07:53.466Z,91.72
2022-12-06T09:09:41.073Z,93.25
2022-12-06T09:11:28.403Z,92.45
2022-12-06T09:13:15.531Z,93.60
2022-12-06T09:15:02.760Z,97.57
2022-12-06T09:16:55.573Z,97.72
2022-12-06T09:18:44.297Z,98.25
2022-12-06T09:20:31.671Z,92.55
2022-12-06T09:22:18.981Z,89.28
2022-12-06T09:24:07.091Z,85.20
2022-12-06T09:27:42.429Z,78.47
2022-12-06T09:29:29.460Z,77.22
2022-12-06T09:31:17.880Z,87.38
2022-12-06T09:33:05.903Z,85.30
2022-12-06T09:34:53.136Z,100.55
2022-12-06T09:36:51.904Z,100.88
2022-12-06T09:38:40.882Z,97.05
2022-12-06T09:40:43.142Z,123.85
2022-12-06T09:42:49.794Z,121.90
2022-12-06T09:44:47.520Z,124.18
2022-12-06T09:46:43.011Z,125.22
2022-12-06T09:49:04.846Z,122.05
2022-12-06T09:50:58.309Z,102.10
2022-12-06T09:52:57.020Z,102.60
2022-12-06T09:55:16.140Z,95.93
2022-12-06T09:57:32.476Z,90.13
2022-12-06T10:00:11.421Z,88.80
2022-12-06T10:02:32.578Z,89.70
2022-12-06T10:04:26.448Z,90.20
2022-12-06T10:06:16.683Z,91.18
2022-12-06T10:08:39.218Z,92.75
2022-12-06T10:10:44.577Z,90.35
2022-12-06T10:12:34.663Z,94.63
2022-12-06T10:14:40.818Z,97.50
2022-12-06T10:17:01.569Z,104.78
2022-12-06T10:19:06.788Z,90.03
2022-12-06T10:21:04.456Z,83.45
2022-12-06T10:23:03.634Z,92.30
2022-12-06T10:24:56.601Z,108.93
2022-12-06T10:26:51.087Z,105.88
2022-12-06T10:29:01.000Z,108.85
2022-12-06T10:30:55.684Z,88.88
2022-12-06T10:32:54.275Z,97.68
2022-12-06T10:34:55.147Z,97.55
2022-12-06T10:36:51.372Z,92.82
2022-12-06T10:38:53.127Z,90.35
2022-12-06T10:41:11.225Z,91.88
2022-12-06T10:43:14.994Z,83.95
2022-12-06T10:45:55.158Z,85.38
2022-12-06T10:47:44.793Z,79.93
2022-12-06T10:49:57.602Z,87.00
2022-12-06T10:52:04.382Z,84.82
2022-12-06T10:53:59.605Z,82.75
2022-12-06T10:55:59.640Z,81.15
2022-12-06T10:58:08.253Z,79.13
2022-12-06T11:00:06.859Z,76.07
2022-12-06T11:02:01.921Z,75.13
2022-12-06T11:04:00.852Z,77.40
2022-12-06T11:06:14.415Z,72.30
2022-12-06T11:08:09.053Z,73.65
2022-12-06T11:09:57.604Z,79.47
2022-12-06T11:11:45.684Z,74.63
2022-12-06T11:13:41.009Z,73.10
2022-12-06T11:15:35.247Z,77.60
2022-12-06T11:17:31.762Z,93.72
2022-12-06T11:19:52.078Z,89.63
2022-12-06T11:21:43.578Z,74.15
2022-12-06T11:23:53.440Z,66.32
2022-12-06T11:26:02.955Z,64.68
2022-12-06T11:28:00.396Z,63.40
2022-12-06T11:29:50.075Z,64.70
2022-12-06T11:31:57.841Z,64.63
2022-12-06T11:35:33.610Z,57.03
2022-12-06T11:37:27.939Z,59.97
2022-12-06T11:39:16.245Z,59.00
2022-12-06T11:41:08.300Z,59.88
2022-12-06T11:42:59.083Z,59.78
2022-12-06T11:44:55.267Z,60.95
2022-12-06T11:46:42.612Z,60.80
2022-12-06T11:48:34.355Z,62.13
2022-12-06T11:50:23.070Z,56.88
2022-12-06T11:52:40.958Z,55.83
2022-12-06T11:54:33.619Z,57.88
2022-12-06T11:56:38.173Z,61.42
2022-12-06T11:58:40.318Z,68.15
2022-12-06T12:00:30.865Z,69.78
2022-12-06T12:02:32.073Z,87.00
2022-12-06T12:04:28.304Z,71.18
2022-12-06T12:06:28.859Z,76.53
2022-12-06T12:08:20.332Z,68.32
2022-12-06T12:10:24.492Z,70.88
2022-12-06T12:12:17.976Z,62.45
2022-12-06T12:14:15.798Z,69.57
2022-12-06T12:16:26.720Z,64.90
2022-12-06T12:18:28.693Z,78.50
2022-12-06T12:20:30.410Z,67.53
2022-12-06T12:22:43.757Z,69.90
2022-12-06T12:25:17.827Z,74.75
2022-12-06T12:27:01.009Z,66.75
2022-12-06T12:29:13.652Z,67.80
2022-12-06T12:31:19.650Z,65.65
2022-12-06T12:33:07.060Z,70.47
2022-12-06T12:34:54.168Z,69.75
2022-12-06T12:36:51.167Z,71.40
2022-12-06T12:38:42.744Z,65.25
2022-12-06T12:40:36.875Z,63.05
2022-12-06T12:42:33.025Z,67.93
2022-12-06T12:44:40.184Z,68.70
2022-12-06T12:46:29.204Z,66.40
2022-12-06T12:48:26.090Z,65.43
2022-12-06T12:50:20.380Z,63.28
2022-12-06T12:52:28.777Z,63.15
2022-12-06T12:54:24.101Z,60.70
2022-12-06T12:56:19.605Z,57.08
2022-12-06T12:58:11.254Z,59.88
2022-12-06T12:59:58.835Z,60.97
2022-12-06T13:02:05.433Z,62.38
2022-12-06T13:03:57.465Z,56.72
2022-12-06T13:05:49.438Z,59.00
2022-12-06T13:07:41.475Z,62.53
2022-12-06T13:09:38.504Z,54.55
2022-12-06T13:11:27.171Z,65.55
2022-12-06T13:13:22.971Z,58.30
2022-12-06T13:15:29.054Z,54.67
2022-12-06T13:17:17.739Z,59.22
2022-12-06T13:19:05.516Z,61.08
2022-12-06T13:20:55.884Z,58.28
2022-12-06T13:22:45.575Z,61.25
2022-12-06T13:24:34.042Z,60.97
2022-12-06T13:26:29.330Z,64.00
2022-12-06T13:28:21.244Z,63.67
2022-12-06T13:30:18.690Z,68.05
2022-12-06T13:32:18.555Z,61.65
2022-12-06T13:34:18.311Z,60.65
2022-12-06T13:36:11.040Z,64.95
2022-12-06T13:38:24.346Z,61.72
2022-12-06T13:40:35.677Z,67.10
2022-12-06T13:42:41.499Z,63.38
2022-12-06T13:44:41.909Z,61.67
2022-12-06T13:46:31.336Z,62.03
2022-12-06T13:48:24.549Z,63.65
2022-12-06T13:50:17.575Z,70.68
2022-12-06T13:52:05.042Z,60.33
2022-12-06T13:54:07.254Z,63.30
2022-12-06T13:56:01.053Z,75.80
2022-12-06T13:57:48.650Z,82.80
2022-12-06T13:59:39.269Z,69.40
2022-12-06T14:01:47.086Z,67.43
2022-12-06T14:03:34.560Z,72.65
2022-12-06T14:07:45.684Z,70.47
2022-12-06T14:09:38.492Z,72.22
2022-12-06T14:11:36.592Z,79.85
2022-12-06T14:13:27.731Z,92.75
2022-12-06T14:15:20.022Z,124.78
2022-12-06T14:17:32.049Z,98.00
2022-12-06T14:19:42.663Z,97.53
2022-12-06T14:21:42.159Z,73.45
2022-12-06T14:23:32.378Z,71.97
2022-12-06T14:25:25.559Z,73.05
2022-12-06T14:27:16.007Z,72.43
2022-12-06T14:29:03.231Z,70.13
2022-12-06T14:30:51.318Z,71.90
2022-12-06T14:34:31.514Z,65.60
2022-12-06T14:36:26.477Z,76.75
2022-12-06T14:38:28.450Z,74.47
2022-12-06T14:41:03.495Z,80.30
2022-12-06T14:43:03.733Z,84.75
2022-12-06T14:45:00.501Z,84.47
2022-12-06T14:46:50.191Z,87.18
2022-12-06T14:48:56.624Z,78.47
2022-12-06T14:50:52.035Z,73.90
2022-12-06T14:52:59.237Z,73.85
2022-12-06T14:54:47.034Z,79.65
2022-12-06T14:56:36.990Z,106.72
2022-12-06T14:58:27.895Z,100.20
2022-12-06T15:00:26.274Z,87.63
2022-12-06T15:02:25.465Z,60.75
2022-12-06T15:04:26.004Z,64.57
2022-12-06T15:06:25.519Z,65.18
2022-12-06T15:08:34.421Z,60.63
2022-12-06T15:10:29.886Z,63.55
2022-12-06T15:12:41.476Z,60.50
2022-12-06T15:14:35.219Z,64.55
2022-12-06T15:16:22.818Z,70.75
2022-12-06T15:18:30.037Z,74.20
2022-12-06T15:20:17.484Z,71.00
2022-12-06T15:22:17.740Z,69.13
2022-12-06T15:24:28.413Z,66.18
2022-12-06T15:26:16.020Z,68.32
2022-12-06T15:28:03.100Z,63.42
2022-12-06T15:29:50.694Z,64.90
2022-12-06T15:31:37.981Z,66.85
2022-12-06T15:33:26.332Z,60.03
2022-12-06T15:35:18.572Z,62.40
2022-12-06T15:39:13.470Z,62.90
2022-12-06T15:41:00.845Z,71.28
2022-12-06T15:42:48.122Z,72.15
2022-12-06T15:44:35.451Z,75.50
2022-12-06T15:46:26.065Z,81.88
2022-12-06T15:48:13.265Z,79.03
2022-12-06T15:50:01.931Z,76.23
2022-12-06T15:51:49.875Z,81.82
2022-12-06T15:53:37.020Z,92.95
2022-12-06T15:55:24.268Z,84.07
2022-12-06T15:57:11.669Z,80.70
2022-12-06T15:58:58.864Z,87.30
2022-12-06T16:00:47.397Z,79.60
2022-12-06T16:02:35.167Z,70.70
2022-12-06T16:04:24.882Z,80.15
2022-12-06T16:06:19.564Z,63.38
2022-12-06T16:08:07.169Z,60.92
2022-12-06T16:09:57.189Z,56.85
2022-12-06T16:11:45.331Z,61.42
2022-12-06T16:13:32.776Z,59.97
2022-12-06T16:15:20.072Z,62.17
2022-12-06T16:17:11.327Z,49.15
2022-12-06T16:18:58.775Z,51.17
2022-12-06T16:20:46.782Z,55.22
2022-12-06T16:22:52.833Z,61.03
2022-12-06T16:24:40.617Z,55.73
2022-12-06T16:26:30.227Z,55.95
2022-12-06T16:28:17.857Z,49.45
2022-12-06T16:30:06.601Z,58.97
2022-12-06T16:31:54.547Z,56.38
2022-12-06T16:33:42.019Z,55.80
2022-12-06T16:35:29.566Z,59.63
2022-12-06T16:37:18.061Z,54.90
2022-12-06T16:39:06.677Z,49.50
2022-12-06T16:41:02.197Z,37.33
2022-12-06T16:42:54.551Z,37.45
2022-12-06T16:44:51.170Z,35.90
2022-12-06T16:46:38.995Z,35.08
2022-12-06T16:48:27.248Z,35.20
2022-12-06T16:50:27.045Z,35.67
2022-12-06T16:52:14.525Z,36.55
2022-12-06T16:54:03.203Z,34.40
2022-12-06T16:55:50.289Z,36.20
2022-12-06T16:57:37.747Z,36.72
2022-12-06T16:59:24.816Z,34.45
2022-12-06T17:01:23.434Z,35.08
2022-12-06T17:05:03.172Z,35.30
2022-12-06T17:06:50.547Z,36.03
2022-12-06T17:08:38.267Z,38.58
2022-12-06T17:10:25.430Z,40.55
2022-12-06T17:12:15.548Z,42.08
2022-12-06T17:14:03.468Z,44.00
2022-12-06T17:15:50.808Z,46.65
2022-12-06T17:17:38.214Z,47.20
2022-12-06T17:19:28.201Z,47.47
2022-12-06T17:21:17.301Z,47.40
2022-12-06T17:23:07.819Z,52.08
2022-12-06T17:24:55.162Z,50.83
2022-12-06T17:26:42.920Z,56.17
2022-12-06T17:28:30.076Z,51.60
2022-12-06T17:30:17.868Z,53.38
2022-12-06T17:32:05.378Z,53.97
2022-12-06T17:33:52.875Z,52.38
2022-12-06T17:35:40.271Z,47.85
2022-12-06T17:37:27.425Z,55.88
2022-12-06T17:39:17.231Z,54.20
2022-12-06T17:41:39.413Z,55.28
2022-12-06T17:43:26.627Z,47.42
2022-12-06T17:45:14.300Z,47.75
2022-12-06T17:47:02.381Z,45.58
2022-12-06T17:48:49.956Z,45.50
2022-12-06T17:50:37.393Z,48.05
2022-12-06T17:52:24.901Z,54.42
2022-12-06T17:54:13.513Z,70.97
2022-12-06T17:56:23.327Z,65.07
2022-12-06T17:58:10.774Z,60.40
2022-12-06T17:59:58.005Z,58.53
2022-12-06T18:02:16.558Z,53.70
2022-12-06T18:03:57.620Z,54.30
2022-12-06T18:05:44.987Z,52.60
2022-12-06T18:07:32.643Z,45.83
2022-12-06T18:13:01.423Z,28.92
2022-12-06T18:14:50.366Z,38.50
2022-12-06T18:16:40.333Z,39.72
2022-12-06T18:18:28.247Z,36.28
2022-12-06T18:20:15.875Z,39.00
2022-12-06T18:22:03.497Z,44.22
2022-12-06T18:24:19.822Z,47.70
2022-12-06T18:26:03.457Z,41.65
2022-12-06T18:27:50.718Z,41.42
2022-12-06T18:29:38.118Z,38.50
2022-12-06T18:31:27.500Z,34.80
2022-12-06T18:33:19.334Z,41.40
2022-12-06T18:35:09.013Z,34.30
2022-12-06T18:36:56.922Z,34.72
2022-12-06T18:38:44.576Z,31.27
2022-12-06T18:42:20.644Z,29.85
2022-12-06T18:44:08.730Z,28.55
2022-12-06T18:46:01.993Z,30.77
2022-12-06T18:47:49.583Z,31.42
2022-12-06T18:49:36.676Z,38.25
2022-12-06T18:51:26.543Z,32.20
2022-12-06T18:53:13.996Z,34.42
2022-12-06T18:55:01.893Z,33.53
2022-12-06T18:56:49.332Z,33.45
2022-12-06T18:58:37.045Z,28.60
2022-12-06T19:00:24.305Z,30.00
2022-12-06T19:02:15.013Z,30.27
2022-12-06T19:04:03.998Z,30.40
2022-12-06T19:06:02.805Z,27.65
2022-12-06T19:07:51.199Z,27.70
2022-12-06T19:09:39.014Z,26.30
2022-12-06T19:11:29.398Z,27.63
2022-12-06T19:13:16.662Z,30.25
2022-12-06T19:15:04.411Z,30.55
2022-12-06T19:18:39.658Z,30.73
2022-12-06T19:20:28.037Z,29.45
2022-12-06T19:24:07.235Z,27.73
2022-12-06T19:26:02.542Z,29.55
2022-12-06T19:27:49.900Z,31.83
2022-12-06T19:29:37.833Z,33.85
2022-12-06T19:31:25.611Z,33.03
2022-12-06T19:33:13.512Z,29.77
2022-12-06T19:35:08.149Z,27.65
2022-12-06T19:36:59.670Z,28.35
2022-12-06T19:38:48.685Z,29.30
2022-12-06T19:40:41.658Z,27.73
2022-12-06T19:42:47.844Z,31.15
2022-12-06T19:44:35.653Z,29.00
2022-12-06T19:48:14.829Z,27.52
2022-12-06T19:50:03.465Z,28.83
2022-12-06T19:51:52.223Z,27.35
2022-12-06T19:53:41.895Z,26.98
2022-12-06T19:55:29.814Z,31.52
2022-12-06T19:57:17.646Z,37.38
2022-12-06T19:59:11.810Z,31.63
2022-12-06T20:01:00.050Z,27.52
2022-12-06T20:02:47.800Z,24.75
2022-12-06T20:04:39.721Z,26.50
2022-12-06T20:06:28.716Z,27.15
2022-12-06T20:08:17.061Z,29.33
2022-12-06T20:10:05.989Z,24.25
2022-12-06T20:12:03.469Z,26.13
2022-12-06T20:15:39.515Z,27.30
2022-12-06T20:17:27.300Z,27.90
2022-12-06T20:19:16.580Z,26.85
2022-12-06T20:21:05.285Z,27.23
2022-12-06T20:22:54.200Z,28.92
2022-12-06T20:24:41.675Z,29.73
2022-12-06T20:28:18.349Z,25.98
2022-12-06T20:30:06.701Z,27.45
2022-12-06T20:31:57.900Z,30.42
2022-12-06T20:33:46.174Z,27.27
2022-12-06T20:35:38.263Z,25.88
2022-12-06T20:37:26.040Z,25.10
2022-12-06T20:39:23.898Z,25.95
2022-12-06T20:41:24.194Z,25.27
2022-12-06T20:43:11.829Z,27.83
2022-12-06T20:44:59.193Z,29.33
2022-12-06T20:46:48.362Z,29.60
2022-12-06T20:48:37.073Z,33.63
2022-12-06T20:50:24.299Z,30.17
2022-12-06T20:52:11.527Z,28.83
2022-12-06T20:54:01.888Z,27.77
2022-12-06T20:55:49.350Z,28.55
2022-12-06T20:57:38.069Z,31.02
2022-12-06T20:59:25.674Z,27.77
2022-12-06T21:01:19.348Z,26.50
2022-12-06T21:03:06.867Z,27.77
2022-12-06T21:04:54.307Z,26.20
2022-12-06T21:06:42.070Z,29.02
2022-12-06T21:08:29.792Z,28.27
2022-12-06T21:10:17.343Z,28.52
2022-12-06T21:12:04.695Z,27.02
2022-12-06T21:13:54.909Z,26.40
2022-12-06T21:15:42.218Z,26.20
2022-12-06T21:17:32.914Z,30.35
2022-12-06T21:19:20.181Z,27.95
2022-12-06T21:21:07.689Z,27.38
2022-12-06T21:22:54.675Z,25.95
2022-12-06T21:24:41.801Z,27.40
2022-12-06T21:26:30.290Z,26.08
2022-12-06T21:28:17.374Z,24.98
2022-12-06T21:30:05.203Z,26.30
2022-12-06T21:31:52.626Z,29.15
2022-12-06T21:33:39.769Z,27.65
2022-12-06T21:35:26.870Z,32.50
2022-12-06T21:37:16.673Z,36.28
2022-12-06T21:39:04.494Z,33.95
2022-12-06T21:40:57.466Z,33.05
2022-12-06T21:42:48.155Z,34.63
2022-12-06T21:44:35.162Z,37.37
2022-12-06T21:46:26.932Z,36.00
2022-12-06T21:48:14.273Z,37.63
2022-12-06T21:50:01.669Z,45.50
2022-12-06T21:51:49.041Z,39.15
2022-12-06T21:53:37.412Z,33.35
2022-12-06T21:55:24.763Z,38.03
2022-12-06T21:57:11.894Z,39.15
2022-12-06T21:59:01.190Z,38.70
2022-12-06T22:00:48.433Z,34.40
2022-12-06T22:02:35.469Z,36.10
2022-12-06T22:04:22.885Z,35.13
2022-12-06T22:06:11.912Z,31.53
2022-12-06T22:07:59.451Z,29.63
2022-12-06T22:09:47.295Z,35.47
2022-12-06T22:11:35.188Z,40.13
2022-12-06T22:13:22.316Z,40.03
2022-12-06T22:15:10.066Z,32.78
2022-12-06T22:16:57.156Z,31.33
2022-12-06T22:18:46.354Z,29.77
2022-12-06T22:20:33.935Z,29.42
2022-12-06T22:22:20.998Z,34.38
2022-12-06T22:24:08.340Z,23.87
2022-12-06T22:25:55.715Z,30.63
2022-12-06T22:27:42.712Z,29.30
2022-12-06T22:29:29.998Z,29.60
2022-12-06T22:31:23.083Z,29.83
2022-12-06T22:33:10.349Z,27.55
2022-12-06T22:34:57.341Z,30.23
2022-12-06T22:36:44.725Z,29.92
2022-12-06T22:38:31.808Z,30.73
2022-12-06T22:40:18.945Z,25.95
2022-12-06T22:42:06.248Z,27.95
2022-12-06T22:43:58.343Z,27.58
2022-12-06T22:45:45.328Z,26.50
2022-12-06T22:47:32.663Z,27.50
2022-12-06T22:49:19.710Z,26.53
2022-12-06T22:51:22.022Z,28.58
2022-12-06T22:53:09.285Z,28.58
2022-12-06T22:54:56.419Z,28.70
2022-12-06T22:56:48.679Z,29.17
2022-12-06T22:58:36.702Z,31.63
2022-12-06T23:00:23.841Z,29.88
2022-12-06T23:02:10.882Z,28.95
2022-12-06T23:04:00.246Z,28.08
2022-12-06T23:05:47.368Z,26.60
2022-12-06T23:07:34.529Z,29.90
2022-12-06T23:09:21.894Z,28.40
2022-12-06T23:11:12.680Z,30.83
2022-12-06T23:12:59.811Z,32.30
2022-12-06T23:14:47.005Z,31.85
2022-12-06T23:16:35.126Z,32.75
2022-12-06T23:18:22.165Z,33.13
2022-12-06T23:20:09.861Z,34.72
2022-12-06T23:21:56.907Z,31.90
2022-12-06T23:23:49.649Z,34.08
2022-12-06T23:25:36.854Z,33.13
2022-12-06T23:27:23.847Z,33.40
2022-12-06T23:29:11.725Z,34.13
2022-12-06T23:31:11.561Z,35.53
2022-12-06T23:32:58.615Z,34.47
2022-12-06T23:34:45.734Z,34.23
2022-12-06T23:36:34.774Z,33.22
2022-12-06T23:38:21.735Z,33.97
2022-12-06T23:40:09.352Z,33.27
2022-12-06T23:41:57.078Z,30.77
2022-12-06T23:43:44.414Z,32.13
2022-12-06T23:45:31.819Z,32.58
2022-12-06T23:47:19.219Z,32.40
2022-12-06T23:49:07.290Z,32.00
2022-12-06T23:51:02.721Z,31.42
2022-12-06T23:52:50.018Z,30.67
2022-12-06T23:54:37.453Z,30.95
2022-12-06T23:56:29.776Z,31.50
2022-12-06T23:58:17.049Z,31.33
